Terminal Aerodrome Forecast
Issued by NWS Paducah, KY

Home | Current Version | Previous Version | Text Only | Print | Product List | Glossary On
Versions: 1 2 3 4 5 6 7 8 9 10 11 12 13
000
FTUS43 KPAH 231700
TAFPAH
TAF
KPAH 231720Z 2318/2418 08007KT P6SM FEW250
     FM240100 13003KT P6SM FEW150
     FM241600 17010KT P6SM FEW050 SCT250=

USA.gov is the U.S. government's official web portal to all federal, state and local government web resources and services.